Time;durP1;ratioP1;P1;durP2;ratioP2;P2;SDS_P1;SDS_P2;PMS_P1;PMS_P2;Temp;Humidity;BMP_temperature;BMP_pressure;BME280_temperature;BME280_humidity;BME280_pressure;Samples;Min_cycle;Max_cycle;Signal;HPM_P1;HPM_P2
2022/07/22 00:01:08;;;;;;;6.80;4.20;;;;;;;23.85;49.68;100417.36;106093;1276;23938;-75
2022/07/22 00:03:35;;;;;;;5.30;3.60;;;;;;;23.84;49.58;100417.48;106045;1276;22537;-78
2022/07/22 00:06:02;;;;;;;7.00;3.60;;;;;;;23.81;49.70;100418.39;105912;1276;22565;-82
2022/07/22 00:08:29;;;;;;;6.80;4.20;;;;;;;23.78;49.71;100415.34;105801;1276;22557;-78
2022/07/22 00:10:56;;;;;;;9.80;3.90;;;;;;;23.75;50.14;100413.34;106092;1276;22563;-78
2022/07/22 00:13:23;;;;;;;7.10;3.90;;;;;;;23.73;50.19;100409.55;105888;1276;26601;-79
2022/07/22 00:15:49;;;;;;;6.10;3.60;;;;;;;23.70;50.16;100409.58;106110;1276;23194;-81
2022/07/22 00:18:16;;;;;;;8.30;4.00;;;;;;;23.66;50.46;100407.46;106794;1276;25315;-78
2022/07/22 00:20:43;;;;;;;7.40;4.10;;;;;;;23.64;50.43;100411.38;105883;1279;23741;-76
2022/07/22 00:23:10;;;;;;;4.70;3.60;;;;;;;23.60;50.55;100410.34;106133;1276;24271;-76
2022/07/22 00:25:38;;;;;;;4.90;3.60;;;;;;;23.57;50.43;100408.19;105958;1276;26479;-78
2022/07/22 00:28:04;;;;;;;8.10;3.60;;;;;;;23.55;50.58;100408.52;105393;1281;25425;-80
2022/07/22 00:30:32;;;;;;;4.10;3.10;;;;;;;23.53;50.50;100405.95;105537;1281;25383;-76
2022/07/22 00:32:59;;;;;;;7.60;3.60;;;;;;;23.52;50.55;100402.80;105636;1281;25436;-79
2022/07/22 00:35:25;;;;;;;3.90;3.30;;;;;;;23.49;50.46;100405.45;105587;1281;25367;-76
2022/07/22 00:37:53;;;;;;;4.50;3.10;;;;;;;23.48;50.45;100402.84;105593;1281;22584;-77
2022/07/22 00:40:20;;;;;;;6.00;3.20;;;;;;;23.47;50.39;100405.95;105431;1281;23714;-79
2022/07/22 00:42:48;;;;;;;8.10;3.30;;;;;;;23.46;50.50;100407.42;105511;1281;23155;-79
2022/07/22 00:45:15;;;;;;;4.80;3.70;;;;;;;23.46;50.50;100408.92;105409;1281;26508;-77
2022/07/22 00:47:43;;;;;;;9.90;3.70;;;;;;;23.44;50.62;100412.27;105940;1278;25374;-78
2022/07/22 00:50:11;;;;;;;4.90;4.20;;;;;;;23.43;50.63;100412.69;105554;1281;23981;-79
2022/07/22 00:52:38;;;;;;;7.50;4.00;;;;;;;23.42;50.57;100409.55;105640;1281;24408;-80
2022/07/22 00:55:06;;;;;;;5.10;3.50;;;;;;;23.39;50.81;100405.91;105495;1281;22553;-80
2022/07/22 00:57:33;;;;;;;5.30;3.70;;;;;;;23.37;50.79;100404.05;105257;1283;25376;-77
2022/07/22 01:00:02;;;;;;;6.00;3.40;;;;;;;23.35;50.96;100399.84;105295;1283;25247;-81
2022/07/22 01:02:29;;;;;;;7.10;3.50;;;;;;;23.33;50.79;100398.52;105497;1282;25924;-80
2022/07/22 01:04:56;;;;;;;6.50;3.30;;;;;;;23.31;50.98;100398.84;105465;1281;24250;-79
2022/07/22 01:07:24;;;;;;;7.30;3.60;;;;;;;23.28;50.91;100395.79;105513;1284;22932;-81
2022/07/22 01:09:50;;;;;;;4.50;3.20;;;;;;;23.27;50.82;100396.27;106114;1276;26509;-79
2022/07/22 01:12:17;;;;;;;6.20;3.40;;;;;;;23.23;50.86;100398.41;106271;1276;24251;-81
2022/07/22 01:14:44;;;;;;;5.80;3.70;;;;;;;23.20;50.82;100392.89;106377;1276;22872;-79
2022/07/22 01:17:11;;;;;;;6.30;3.10;;;;;;;23.19;50.90;100394.73;106512;1276;24232;-77
2022/07/22 01:19:39;;;;;;;6.00;3.40;;;;;;;23.18;50.93;100389.80;106540;1276;24216;-76
2022/07/22 01:22:07;;;;;;;6.70;3.70;;;;;;;23.15;50.92;100388.15;106639;1276;25249;-79
2022/07/22 01:24:34;;;;;;;6.20;3.60;;;;;;;23.13;51.06;100384.89;106643;1276;22755;-77
2022/07/22 01:27:02;;;;;;;5.30;3.30;;;;;;;23.10;51.15;100379.29;106703;1276;22823;-77
2022/07/22 01:29:29;;;;;;;6.90;3.80;;;;;;;23.11;51.09;100379.77;107099;1276;25268;-79
2022/07/22 01:31:56;;;;;;;5.90;3.80;;;;;;;23.10;51.12;100379.65;106555;1276;22751;-79
2022/07/22 01:34:24;;;;;;;5.70;3.60;;;;;;;23.08;51.05;100376.73;105418;1284;24714;-78
2022/07/22 01:36:52;;;;;;;3.80;3.20;;;;;;;23.05;51.14;100376.92;105470;1282;23339;-78
2022/07/22 01:39:19;;;;;;;6.10;3.80;;;;;;;23.03;51.06;100379.01;105604;1282;24757;-77
2022/07/22 01:41:46;;;;;;;6.10;3.60;;;;;;;23.03;51.04;100382.41;105318;1282;22633;-74
2022/07/22 01:44:13;;;;;;;5.90;3.60;;;;;;;23.03;51.09;100382.45;105239;1282;22589;-80
2022/07/22 01:46:40;;;;;;;9.10;3.70;;;;;;;23.02;51.23;100382.10;105392;1282;22944;-77
2022/07/22 01:49:07;;;;;;;4.70;3.60;;;;;;;23.01;50.87;100382.17;105290;1282;23215;-79
2022/07/22 01:51:37;;;;;;;6.50;3.50;;;;;;;23.00;51.04;100379.34;105320;1282;25372;-77
2022/07/22 01:54:04;;;;;;;8.60;3.50;;;;;;;23.00;50.83;100384.02;105715;1276;25424;-78
2022/07/22 01:56:31;;;;;;;6.20;4.40;;;;;;;22.99;51.00;100381.39;105832;1276;23201;-77
2022/07/22 01:58:58;;;;;;;6.80;4.00;;;;;;;22.99;51.00;100385.52;105552;1276;25373;-80
2022/07/22 02:01:26;;;;;;;5.90;4.40;;;;;;;22.98;50.81;100392.95;105982;1276;25244;-78
2022/07/22 02:03:53;;;;;;;6.50;4.20;;;;;;;22.98;50.94;100401.05;105964;1276;24223;-77
2022/07/22 02:06:21;;;;;;;4.30;3.40;;;;;;;22.92;51.02;100401.60;105866;1276;22626;-81
2022/07/22 02:08:48;;;;;;;7.10;4.10;;;;;;;22.83;51.13;100402.13;105463;1281;24239;-78
2022/07/22 02:11:21;;;;;;;7.20;4.00;;;;;;;22.77;51.10;100399.24;105338;1282;25188;-79
2022/07/22 02:13:52;;;;;;;7.10;3.80;;;;;;;22.71;51.36;100402.48;105375;1281;23708;-76
2022/07/22 02:16:19;;;;;;;9.20;3.80;;;;;;;22.64;51.30;100399.50;105485;1281;22540;-78
2022/07/22 02:18:47;;;;;;;5.20;3.90;;;;;;;22.63;51.39;100398.24;105541;1282;22575;-78
2022/07/22 02:21:14;;;;;;;8.50;3.50;;;;;;;22.61;51.64;100397.52;105522;1281;26492;-78
2022/07/22 02:23:42;;;;;;;5.50;3.40;;;;;;;22.59;51.61;100400.81;105506;1281;22538;-77
2022/07/22 02:26:09;;;;;;;5.80;3.80;;;;;;;22.58;51.69;100406.98;105283;1276;24108;-79
2022/07/22 02:28:36;;;;;;;9.80;4.00;;;;;;;22.57;51.82;100409.73;105960;1276;25248;-78
2022/07/22 02:31:04;;;;;;;11.00;4.10;;;;;;;22.53;51.68;100417.35;106031;1276;22854;-78
2022/07/22 02:33:31;;;;;;;5.60;3.50;;;;;;;22.49;51.82;100414.33;105818;1276;22550;-79
2022/07/22 02:35:59;;;;;;;9.20;4.10;;;;;;;22.45;52.10;100410.59;106054;1277;25295;-78
2022/07/22 02:38:26;;;;;;;6.30;4.20;;;;;;;22.45;52.22;100422.82;105999;1276;22615;-78
2022/07/22 02:40:53;;;;;;;4.90;3.70;;;;;;;22.41;52.20;100434.51;105934;1278;22569;-77
2022/07/22 02:43:20;;;;;;;5.80;4.40;;;;;;;22.34;52.41;100416.60;106117;1276;22574;-78
2022/07/22 02:45:47;;;;;;;7.80;4.30;;;;;;;22.33;52.61;100403.59;106111;1276;22489;-79
2022/07/22 02:48:14;;;;;;;7.20;4.10;;;;;;;22.32;52.66;100442.05;106071;1276;25366;-78
2022/07/22 02:50:48;;;;;;;7.40;4.30;;;;;;;22.25;52.69;100424.87;105788;1279;22557;-81
2022/07/22 02:53:20;;;;;;;7.90;4.30;;;;;;;22.16;52.71;100426.29;106105;1276;22551;-76
2022/07/22 02:55:47;;;;;;;8.60;4.30;;;;;;;22.13;53.07;100419.63;105893;1276;24225;-78
2022/07/22 02:58:14;;;;;;;7.40;4.30;;;;;;;22.07;53.33;100418.16;105969;1276;22550;-79
2022/07/22 03:00:42;;;;;;;8.90;4.70;;;;;;;22.03;53.47;100424.48;105826;1277;22715;-78
2022/07/22 03:03:09;;;;;;;6.80;4.40;;;;;;;21.98;53.53;100413.98;106048;1279;25519;-79
2022/07/22 03:05:36;;;;;;;5.40;4.40;;;;;;;21.97;53.46;100415.30;105978;1276;22558;-79
2022/07/22 03:08:19;;;;;;;7.40;4.60;;;;;;;21.98;53.50;100417.59;105928;1276;22557;-78
2022/07/22 03:10:46;;;;;;;5.80;4.60;;;;;;;21.97;53.60;100411.02;105513;1277;23933;-83
2022/07/22 03:13:13;;;;;;;5.50;4.40;;;;;;;21.97;53.58;100405.97;105679;1277;22851;-81
2022/07/22 03:15:40;;;;;;;7.00;4.70;;;;;;;21.98;53.77;100412.35;105210;1284;25302;-78
2022/07/22 03:18:10;;;;;;;6.60;4.40;;;;;;;22.00;54.10;100413.91;105312;1282;25049;-79
2022/07/22 03:20:39;;;;;;;8.20;4.20;;;;;;;21.95;54.08;100412.95;105760;1282;22617;-79
2022/07/22 03:23:06;;;;;;;8.90;3.90;;;;;;;21.94;54.23;100410.45;106629;1284;22592;-76
2022/07/22 03:25:34;;;;;;;7.80;4.30;;;;;;;21.94;54.25;100412.98;106959;1282;22900;-78
2022/07/22 03:28:02;;;;;;;5.90;4.20;;;;;;;21.93;54.34;100410.16;106951;1282;22965;-78
2022/07/22 03:30:29;;;;;;;6.80;4.00;;;;;;;21.92;54.46;100406.80;105694;1284;22578;-77
2022/07/22 03:32:56;;;;;;;7.00;4.50;;;;;;;21.94;54.60;100403.50;106870;1280;22582;-75
2022/07/22 03:35:24;;;;;;;6.60;4.50;;;;;;;21.95;54.69;100404.14;107883;1276;22534;-77
2022/07/22 03:37:51;;;;;;;9.70;4.50;;;;;;;21.95;54.72;100403.05;106777;1282;22558;-77
2022/07/22 03:40:20;;;;;;;12.90;5.30;;;;;;;21.97;54.92;100401.88;105795;1282;24262;-77
2022/07/22 03:42:47;;;;;;;7.20;4.40;;;;;;;21.98;54.92;100401.25;105451;1282;24542;-79
2022/07/22 03:45:14;;;;;;;7.50;4.40;;;;;;;22.00;54.89;100406.17;105271;1282;26486;-79
2022/07/22 03:47:42;;;;;;;7.00;4.80;;;;;;;22.01;54.92;100413.29;105056;1281;22579;-78
2022/07/22 03:50:09;;;;;;;8.70;4.90;;;;;;;22.03;55.05;100411.23;105181;1282;22556;-77
2022/07/22 03:52:37;;;;;;;7.10;4.50;;;;;;;22.01;54.98;100410.42;104963;1284;22583;-78
2022/07/22 03:55:07;;;;;;;9.80;4.80;;;;;;;22.01;55.20;100414.19;104762;1287;22642;-77
2022/07/22 03:57:34;;;;;;;11.40;4.70;;;;;;;21.98;55.25;100416.35;105339;1281;22785;-77
2022/07/22 04:00:12;;;;;;;11.70;4.90;;;;;;;21.98;55.56;100421.55;105391;1281;22555;-78
2022/07/22 04:02:42;;;;;;;12.90;4.90;;;;;;;21.96;55.56;100426.14;105139;1281;22654;-78
2022/07/22 04:05:15;;;;;;;6.20;4.70;;;;;;;21.95;55.40;100427.82;105264;1282;22547;-78
2022/07/22 04:07:42;;;;;;;9.20;4.40;;;;;;;21.93;55.17;100421.99;105078;1281;22543;-79
2022/07/22 04:10:10;;;;;;;7.00;5.00;;;;;;;21.94;55.28;100425.52;105623;1281;22616;-78
2022/07/22 04:12:40;;;;;;;5.50;4.80;;;;;;;21.94;55.34;100421.36;105531;1276;25467;-76
2022/07/22 04:15:30;;;;;;;9.90;4.90;;;;;;;21.95;55.24;100415.09;105632;1276;24307;-78
2022/07/22 04:17:57;;;;;;;6.60;4.70;;;;;;;21.98;55.37;100416.16;105713;1276;25222;-78
2022/07/22 04:20:25;;;;;;;9.20;5.10;;;;;;;22.01;55.44;100422.64;105984;1276;22697;-77
2022/07/22 04:23:10;;;;;;;7.80;4.50;;;;;;;22.04;55.27;100422.45;105895;1276;22547;-78
2022/07/22 04:25:38;;;;;;;10.00;5.30;;;;;;;22.06;55.25;100420.56;105547;1279;22560;-77
2022/07/22 04:28:05;;;;;;;6.30;4.80;;;;;;;22.08;55.11;100417.75;105711;1276;22556;-78
2022/07/22 04:30:32;;;;;;;10.50;4.80;;;;;;;22.12;54.73;100419.33;105868;1276;22566;-80
2022/07/22 04:32:59;;;;;;;8.70;4.90;;;;;;;22.14;54.72;100416.34;105834;1276;22532;-77
2022/07/22 04:35:27;;;;;;;8.30;4.80;;;;;;;22.17;54.82;100415.42;105640;1276;24168;-77
2022/07/22 04:38:05;;;;;;;6.40;4.20;;;;;;;22.21;54.42;100411.96;105867;1277;22577;-78
2022/07/22 04:40:32;;;;;;;9.10;4.80;;;;;;;22.24;54.45;100419.89;105784;1276;22536;-77
2022/07/22 04:42:59;;;;;;;8.70;4.50;;;;;;;22.27;54.15;100413.98;105510;1276;22560;-76
2022/07/22 04:45:28;;;;;;;7.00;4.20;;;;;;;22.27;53.72;100405.73;105923;1276;22562;-80
2022/07/22 04:47:55;;;;;;;6.80;4.90;;;;;;;22.30;53.58;100404.63;105628;1276;24249;-78
2022/07/22 04:50:23;;;;;;;6.40;4.50;;;;;;;22.38;53.63;100404.21;105782;1276;25304;-79
2022/07/22 04:52:54;;;;;;;9.60;4.40;;;;;;;22.44;53.48;100405.48;105965;1276;25261;-76
2022/07/22 04:55:22;;;;;;;6.90;3.90;;;;;;;22.46;53.43;100406.22;105771;1276;22556;-79
2022/07/22 04:57:50;;;;;;;12.10;4.10;;;;;;;22.49;52.98;100403.89;105857;1276;22604;-78
2022/07/22 05:00:17;;;;;;;7.60;4.70;;;;;;;22.53;52.98;100398.88;106035;1276;22477;-78
2022/07/22 05:02:51;;;;;;;8.00;4.80;;;;;;;22.57;53.00;100400.41;105737;1276;22566;-79
2022/07/22 05:05:19;;;;;;;10.50;4.30;;;;;;;22.61;52.89;100404.69;105846;1276;22732;-80
2022/07/22 05:07:47;;;;;;;9.50;4.70;;;;;;;22.66;52.70;100397.39;105869;1279;23142;-83
2022/07/22 05:10:14;;;;;;;9.00;4.20;;;;;;;22.69;52.55;100398.29;106304;1276;22556;-80
2022/07/22 05:12:47;;;;;;;8.40;4.10;;;;;;;22.75;52.56;100400.23;107096;1276;22771;-78
2022/07/22 05:15:14;;;;;;;7.30;3.90;;;;;;;22.80;52.53;100396.00;106932;1276;22576;-79
2022/07/22 05:17:42;;;;;;;10.10;4.20;;;;;;;22.86;52.32;100389.21;106687;1276;22509;-76
2022/07/22 05:20:17;;;;;;;6.40;4.00;;;;;;;22.90;52.49;100392.02;106940;1278;25334;-76
2022/07/22 05:22:43;;;;;;;9.00;4.20;;;;;;;22.95;52.27;100395.45;107749;1276;25366;-76
2022/07/22 05:25:14;;;;;;;9.20;4.20;;;;;;;23.01;52.18;100396.38;108192;1276;25191;-78
2022/07/22 05:27:54;;;;;;;9.20;4.10;;;;;;;23.06;51.94;100398.23;108316;1281;22928;-79
2022/07/22 05:30:27;;;;;;;6.00;4.00;;;;;;;23.11;51.42;100392.52;108450;1279;25381;-79
2022/07/22 05:32:54;;;;;;;6.00;4.00;;;;;;;23.18;51.08;100395.89;107628;1279;22518;-77
2022/07/22 05:35:46;;;;;;;7.50;4.00;;;;;;;23.26;50.79;100398.29;107700;1279;22493;-77
2022/07/22 05:38:13;;;;;;;8.70;4.00;;;;;;;23.31;50.74;100398.47;108597;1279;22744;-78
2022/07/22 05:40:40;;;;;;;9.90;4.00;;;;;;;23.37;50.48;100398.09;108025;1285;22572;-78
2022/07/22 05:43:07;;;;;;;8.90;4.20;;;;;;;23.44;50.50;100398.79;107578;1285;24064;-75
2022/07/22 05:45:34;;;;;;;4.40;3.10;;;;;;;23.50;50.24;100398.25;107095;1282;25895;-77
2022/07/22 05:48:02;;;;;;;8.30;4.00;;;;;;;23.56;49.98;100396.43;106594;1282;25366;-76
2022/07/22 05:50:30;;;;;;;6.30;3.70;;;;;;;23.63;49.71;100392.05;106145;1283;22493;-78
2022/07/22 05:52:57;;;;;;;9.50;3.70;;;;;;;23.69;49.84;100394.33;105516;1284;25624;-81
2022/07/22 05:55:26;;;;;;;6.40;4.10;;;;;;;23.75;49.64;100391.25;105745;1284;22658;-77
2022/07/22 05:57:53;;;;;;;8.00;3.70;;;;;;;23.81;49.36;100390.16;105569;1281;24338;-76
2022/07/22 06:00:20;;;;;;;11.30;3.80;;;;;;;23.88;49.11;100393.16;106186;1276;25277;-78
2022/07/22 06:02:47;;;;;;;7.80;3.70;;;;;;;23.93;48.95;100392.11;106294;1274;25367;-79
2022/07/22 06:05:17;;;;;;;11.60;3.90;;;;;;;23.99;48.86;100393.45;105932;1274;26511;-78
2022/07/22 06:08:03;;;;;;;8.70;3.30;;;;;;;24.06;48.77;100392.66;105553;1284;26700;-79
2022/07/22 06:10:39;;;;;;;9.10;4.50;;;;;;;24.14;48.56;100391.26;105562;1281;25407;-81
2022/07/22 06:13:06;;;;;;;8.90;3.70;;;;;;;24.21;48.56;100387.61;105541;1281;22567;-78
2022/07/22 06:15:34;;;;;;;8.00;3.40;;;;;;;24.29;48.37;100390.52;105463;1281;25225;-76
2022/07/22 06:18:01;;;;;;;8.40;3.50;;;;;;;24.37;48.06;100392.69;105319;1281;25486;-80
2022/07/22 06:20:28;;;;;;;7.90;3.00;;;;;;;24.45;47.70;100396.27;105435;1281;24429;-79
2022/07/22 06:22:55;;;;;;;7.90;3.00;;;;;;;24.52;47.62;100397.75;105362;1284;25065;-78
2022/07/22 06:25:22;;;;;;;9.80;3.50;;;;;;;24.58;47.40;100393.05;105443;1279;24353;-80
2022/07/22 06:28:12;;;;;;;6.80;3.50;;;;;;;24.64;47.41;100401.48;106069;1275;23063;-77
2022/07/22 06:30:39;;;;;;;8.60;3.90;;;;;;;24.71;46.35;100399.53;105482;1281;22586;-80
2022/07/22 06:33:07;;;;;;;10.80;3.30;;;;;;;24.77;46.42;100399.67;105087;1285;26639;-80
2022/07/22 06:35:38;;;;;;;10.30;3.20;;;;;;;24.84;46.42;100402.08;105345;1281;22562;-79
2022/07/22 06:38:05;;;;;;;8.90;3.70;;;;;;;24.92;45.99;100401.95;105573;1282;25213;-80
2022/07/22 06:41:04;;;;;;;6.80;3.10;;;;;;;25.01;46.09;100409.06;105197;1282;291187;-77
2022/07/22 06:43:42;;;;;;;7.60;3.30;;;;;;;25.07;46.02;100408.97;105204;1281;25316;-79
2022/07/22 06:46:30;;;;;;;10.20;3.20;;;;;;;25.14;46.14;100412.98;105732;1281;22693;-78
2022/07/22 06:48:57;;;;;;;8.20;3.70;;;;;;;25.18;45.83;100414.91;105349;1279;22567;-78
2022/07/22 06:51:26;;;;;;;4.80;3.10;;;;;;;25.22;46.16;100417.69;105914;1278;24250;-80
2022/07/22 06:53:53;;;;;;;7.80;3.80;;;;;;;25.28;46.10;100413.88;105549;1278;23958;-78
2022/07/22 06:56:20;;;;;;;6.90;3.60;;;;;;;25.33;46.42;100415.98;105950;1276;22930;-78
2022/07/22 06:58:47;;;;;;;8.50;3.20;;;;;;;25.35;46.36;100414.23;105863;1276;24852;-78
2022/07/22 07:01:14;;;;;;;9.30;3.30;;;;;;;25.42;46.38;100412.34;105876;1278;22714;-78
2022/07/22 07:03:53;;;;;;;13.50;3.80;;;;;;;25.46;46.39;100413.67;105284;1281;22545;-78
2022/07/22 07:06:20;;;;;;;6.80;3.50;;;;;;;25.50;46.17;100416.48;105304;1282;24584;-79
2022/07/22 07:09:07;;;;;;;8.20;3.20;;;;;;;25.55;46.27;100411.93;105132;1281;24251;-77
2022/07/22 07:11:34;;;;;;;11.40;4.00;;;;;;;25.60;46.41;100407.30;105819;1281;22617;-77
2022/07/22 07:14:06;;;;;;;6.40;3.40;;;;;;;25.66;46.29;100407.55;105596;1281;22551;-77
2022/07/22 07:16:33;;;;;;;7.80;3.50;;;;;;;25.74;46.51;100407.89;105548;1281;25209;-80
2022/07/22 07:19:01;;;;;;;5.20;3.70;;;;;;;25.82;46.47;100404.28;105383;1281;22563;-79
2022/07/22 07:21:28;;;;;;;4.40;3.60;;;;;;;25.89;46.69;100400.14;104886;1285;22548;-79
2022/07/22 07:23:56;;;;;;;9.90;4.00;;;;;;;25.97;46.55;100398.69;105231;1284;22653;-81
2022/07/22 07:26:23;;;;;;;4.40;3.30;;;;;;;26.04;46.04;100397.09;105241;1284;25246;-79
2022/07/22 07:28:50;;;;;;;7.80;3.30;;;;;;;26.11;45.54;100397.11;104830;1289;22597;-78
2022/07/22 07:31:32;;;;;;;6.20;3.50;;;;;;;26.20;45.25;100398.80;104652;1287;22897;-79
2022/07/22 07:34:03;;;;;;;6.90;4.20;;;;;;;26.29;45.21;100401.73;105064;1287;22591;-74
2022/07/22 07:36:30;;;;;;;8.10;4.20;;;;;;;26.33;45.14;100398.34;105144;1287;23182;-79
2022/07/22 07:38:56;;;;;;;8.80;5.30;;;;;;;26.39;45.29;100402.60;105128;1282;22529;-77
2022/07/22 07:41:24;;;;;;;6.40;4.30;;;;;;;26.46;44.73;100397.61;105759;1281;24323;-79
2022/07/22 07:43:51;;;;;;;12.00;4.50;;;;;;;26.53;44.50;100401.05;105697;1281;25418;-81
2022/07/22 07:46:19;;;;;;;8.50;4.60;;;;;;;26.56;44.56;100401.67;105382;1280;22549;-77
2022/07/22 07:48:48;;;;;;;9.50;4.50;;;;;;;26.61;44.30;100396.48;106027;1276;22579;-82
2022/07/22 07:51:15;;;;;;;8.70;4.70;;;;;;;26.63;44.25;100397.94;105815;1277;25241;-81
2022/07/22 07:53:42;;;;;;;12.80;4.50;;;;;;;26.66;44.51;100397.49;105852;1279;24251;-79
2022/07/22 07:56:10;;;;;;;9.00;5.00;;;;;;;26.69;44.86;100394.75;106190;1276;25253;-78
2022/07/22 07:58:38;;;;;;;10.50;5.10;;;;;;;26.75;44.92;100392.34;105936;1277;22536;-79
2022/07/22 08:01:06;;;;;;;7.90;4.30;;;;;;;26.81;45.01;100387.16;105926;1275;22490;-80
2022/07/22 08:03:35;;;;;;;9.10;4.60;;;;;;;26.87;44.84;100388.33;106087;1274;25247;-80
2022/07/22 08:06:02;;;;;;;5.80;5.00;;;;;;;26.88;44.48;100390.59;106140;1277;25235;-78
2022/07/22 08:08:29;;;;;;;12.40;4.80;;;;;;;26.93;44.60;100389.13;106905;1276;23100;-77
2022/07/22 08:11:02;;;;;;;7.00;5.00;;;;;;;27.00;44.74;100393.81;107292;1276;25237;-77
2022/07/22 08:13:45;;;;;;;9.20;5.10;;;;;;;27.09;44.62;100395.13;106658;1277;22577;-78
2022/07/22 08:16:32;;;;;;;7.00;5.80;;;;;;;27.15;44.42;100396.88;106200;1277;25371;-79
2022/07/22 08:18:59;;;;;;;13.30;5.70;;;;;;;27.18;44.22;100393.86;106664;1274;25386;-75
2022/07/22 08:21:27;;;;;;;8.00;5.20;;;;;;;27.24;44.21;100397.06;108040;1274;22525;-75
2022/07/22 08:23:56;;;;;;;6.70;5.90;;;;;;;27.33;44.36;100392.51;108567;1278;25171;-74
2022/07/22 08:26:24;;;;;;;9.70;5.80;;;;;;;27.44;44.67;100390.53;106301;1284;22617;-77
2022/07/22 08:28:58;;;;;;;9.70;5.80;;;;;;;27.55;44.51;100392.60;106878;1284;22546;-77
2022/07/22 08:31:31;;;;;;;7.40;5.80;;;;;;;27.58;44.75;100391.10;107980;1284;22931;-76
2022/07/22 08:34:03;;;;;;;12.20;6.60;;;;;;;27.69;44.88;100387.70;107944;1284;24985;-77
2022/07/22 08:36:31;;;;;;;13.10;6.80;;;;;;;27.79;44.52;100383.44;106180;1287;22572;-77
2022/07/22 08:38:58;;;;;;;11.30;6.10;;;;;;;27.84;44.30;100382.71;105280;1287;23061;-76
2022/07/22 08:41:26;;;;;;;13.30;6.70;;;;;;;27.86;44.42;100377.05;105050;1284;22576;-77
2022/07/22 08:43:55;;;;;;;14.00;7.20;;;;;;;27.97;44.30;100372.04;105438;1281;22788;-79
2022/07/22 08:46:24;;;;;;;13.80;6.60;;;;;;;28.07;44.20;100374.13;106000;1278;22587;-79
2022/07/22 08:49:16;;;;;;;11.20;6.40;;;;;;;28.18;44.13;100378.25;105437;1278;24225;-77
2022/07/22 08:51:53;;;;;;;14.10;6.70;;;;;;;28.23;44.12;100376.42;105910;1277;25527;-79
2022/07/22 08:54:23;;;;;;;12.90;6.60;;;;;;;28.28;43.99;100371.81;105930;1277;22566;-78
2022/07/22 08:56:52;;;;;;;7.50;6.80;;;;;;;28.39;44.25;100372.91;105922;1278;23977;-78
2022/07/22 08:59:21;;;;;;;13.30;7.70;;;;;;;28.56;44.24;100372.05;105884;1278;22547;-79
2022/07/22 09:02:08;;;;;;;10.00;6.90;;;;;;;28.67;43.90;100373.46;105596;1281;24369;-79
2022/07/22 09:04:53;;;;;;;10.60;7.30;;;;;;;28.78;43.63;100378.79;105995;1278;22552;-83
2022/07/22 09:07:35;;;;;;;10.80;7.40;;;;;;;28.80;43.35;100373.27;105999;1278;22563;-78
2022/07/22 09:10:31;;;;;;;11.90;6.60;;;;;;;28.88;43.53;100371.97;106280;1277;22582;-77
2022/07/22 09:13:18;;;;;;;12.00;7.40;;;;;;;29.04;43.61;100376.66;106422;1277;24265;-77
2022/07/22 09:15:54;;;;;;;10.80;7.50;;;;;;;29.13;43.03;100377.27;106560;1278;22592;-78
2022/07/22 09:18:51;;;;;;;11.00;7.50;;;;;;;29.15;43.00;100379.85;106807;1278;22538;-78
2022/07/22 09:21:30;;;;;;;8.90;7.30;;;;;;;29.18;42.79;100379.23;106838;1278;22597;-76
2022/07/22 09:24:29;;;;;;;10.40;7.90;;;;;;;29.23;42.94;100382.58;106866;1277;25425;-77
2022/07/22 09:27:24;;;;;;;10.90;7.00;;;;;;;29.35;42.80;100379.75;106708;1277;23967;-76
2022/07/22 09:30:17;;;;;;;12.30;8.00;;;;;;;29.50;42.98;100382.74;106140;1274;23045;-79
2022/07/22 09:32:56;;;;;;;12.90;8.10;;;;;;;29.61;42.70;100381.11;105987;1275;25236;-78
2022/07/22 09:35:43;;;;;;;11.10;7.10;;;;;;;29.68;42.62;100383.73;105884;1278;22585;-79
2022/07/22 09:38:17;;;;;;;10.40;7.30;;;;;;;29.82;42.85;100382.15;105896;1277;22585;-79
2022/07/22 09:40:47;;;;;;;14.60;8.50;;;;;;;29.95;42.44;100382.98;106011;1275;22532;-78
2022/07/22 09:43:17;;;;;;;11.30;7.90;;;;;;;29.96;41.93;100385.96;105858;1275;24247;-76
2022/07/22 09:45:58;;;;;;;11.90;7.60;;;;;;;29.98;41.71;100383.92;105916;1276;22707;-77
2022/07/22 09:48:44;;;;;;;10.90;6.80;;;;;;;30.00;41.42;100386.10;106015;1277;24224;-77
2022/07/22 09:51:33;;;;;;;10.40;7.50;;;;;;;30.16;41.61;100382.52;105827;1274;25291;-78
2022/07/22 09:54:19;;;;;;;10.00;7.50;;;;;;;30.29;41.29;100384.03;105625;1281;25247;-77
2022/07/22 09:56:46;;;;;;;11.10;7.00;;;;;;;30.35;41.32;100382.19;105331;1281;22604;-75
2022/07/22 09:59:16;;;;;;;10.90;6.90;;;;;;;30.49;41.12;100372.08;105355;1281;25431;-77
2022/07/22 10:01:58;;;;;;;10.70;6.80;;;;;;;30.57;40.79;100365.63;105258;1281;22533;-78
2022/07/22 10:04:33;;;;;;;10.10;6.70;;;;;;;30.62;40.88;100366.98;105649;1281;25541;-77
2022/07/22 10:07:01;;;;;;;10.40;7.10;;;;;;;30.63;40.53;100367.27;105455;1282;24012;-77
2022/07/22 10:09:34;;;;;;;15.60;7.80;;;;;;;30.57;40.22;100369.68;105014;1287;22571;-77
2022/07/22 10:12:03;;;;;;;11.90;7.30;;;;;;;30.52;40.41;100370.16;104888;1284;22685;-74
2022/07/22 10:14:32;;;;;;;9.30;6.80;;;;;;;30.66;40.62;100370.64;105103;1284;23813;-82
2022/07/22 10:16:59;;;;;;;12.80;7.60;;;;;;;30.83;40.16;100366.13;105335;1284;22560;-80
2022/07/22 10:19:33;;;;;;;11.00;7.70;;;;;;;30.93;40.09;100367.97;105272;1282;25263;-79
2022/07/22 10:22:00;;;;;;;9.20;7.60;;;;;;;30.88;39.77;100369.30;105074;1287;24342;-76
2022/07/22 10:24:27;;;;;;;13.00;7.40;;;;;;;30.90;39.83;100366.59;105382;1282;25261;-78
2022/07/22 10:27:00;;;;;;;10.60;6.80;;;;;;;31.00;39.88;100368.15;105327;1278;22538;-79
2022/07/22 10:29:43;;;;;;;8.50;7.50;;;;;;;31.18;39.63;100361.77;105889;1274;22736;-80
2022/07/22 10:32:16;;;;;;;12.00;7.50;;;;;;;31.27;39.38;100367.27;105834;1276;24221;-76
2022/07/22 10:34:59;;;;;;;10.80;7.90;;;;;;;31.32;39.31;100359.97;105917;1274;25246;-76
2022/07/22 10:37:35;;;;;;;9.80;7.70;;;;;;;31.54;39.34;100359.77;106146;1274;22559;-79
2022/07/22 10:40:12;;;;;;;11.10;7.80;;;;;;;31.77;38.91;100360.13;105803;1274;24294;-76
2022/07/22 10:42:59;;;;;;;9.80;7.60;;;;;;;31.98;38.77;100357.16;105857;1275;22556;-78
2022/07/22 10:45:32;;;;;;;11.10;7.00;;;;;;;32.19;38.33;100354.72;105836;1276;22882;-80
2022/07/22 10:48:07;;;;;;;8.90;7.30;;;;;;;32.24;37.62;100354.39;105868;1277;25246;-79
2022/07/22 10:50:37;;;;;;;;;;;;;;;32.37;37.37;100358.04;106018;1275;25220;-77
2022/07/22 10:53:08;;;;;;;10.20;8.10;;;;;;;32.48;37.47;100351.99;105967;1276;22550;-75
2022/07/22 10:55:36;;;;;;;11.90;7.80;;;;;;;32.65;37.01;100355.80;105844;1277;22547;-78
2022/07/22 10:58:34;;;;;;;15.50;7.70;;;;;;;32.80;36.59;100350.95;105815;1278;23928;-80
2022/07/22 11:01:05;;;;;;;11.00;7.60;;;;;;;32.92;36.01;100354.65;106006;1276;22624;-79
2022/07/22 11:03:34;;;;;;;8.00;7.10;;;;;;;32.96;35.91;100355.24;106042;1274;22693;-75
2022/07/22 11:06:18;;;;;;;10.10;7.20;;;;;;;33.09;35.85;100354.69;106008;1276;22533;-79
2022/07/22 11:09:05;;;;;;;10.50;7.40;;;;;;;33.11;35.33;100353.99;105972;1275;22544;-81
2022/07/22 11:11:50;;;;;;;11.70;8.50;;;;;;;33.06;35.53;100352.09;105952;1279;22571;-79
2022/07/22 11:14:20;;;;;;;11.20;7.40;;;;;;;33.08;35.22;100352.42;106550;1274;22483;-77
2022/07/22 11:16:51;;;;;;;9.00;7.40;;;;;;;33.10;35.07;100352.08;108145;1274;22722;-78
2022/07/22 11:19:22;;;;;;;11.90;7.10;;;;;;;33.15;35.08;100350.59;109017;1274;25367;-78
2022/07/22 11:21:51;;;;;;;10.60;7.50;;;;;;;33.16;34.66;100352.17;108804;1274;22739;-76
2022/07/22 11:24:20;;;;;;;9.20;6.60;;;;;;;33.24;35.09;100347.85;108464;1274;22493;-77
2022/07/22 11:26:51;;;;;;;7.40;6.50;;;;;;;33.52;34.62;100349.94;106636;1276;22864;-77
2022/07/22 11:29:34;;;;;;;9.50;7.20;;;;;;;33.70;34.45;100344.48;107471;1274;22705;-77
2022/07/22 11:32:05;;;;;;;10.90;6.30;;;;;;;33.93;34.53;100340.88;107716;1278;26892;-76